createdAt,value
2023-01-13T00:00:15.884Z,87.34
2023-01-13T00:02:42.733Z,87.44
2023-01-13T00:05:10.409Z,86.93
2023-01-13T00:07:40.038Z,87.01
2023-01-13T00:10:11.373Z,86.52
2023-01-13T00:12:42.255Z,85.83
2023-01-13T00:15:11.647Z,85.80
2023-01-13T00:17:38.924Z,85.69
2023-01-13T00:20:06.782Z,85.53
2023-01-13T00:22:35.257Z,85.44
2023-01-13T00:25:04.223Z,85.44
2023-01-13T00:27:31.503Z,85.23
2023-01-13T00:29:58.470Z,85.10
2023-01-13T00:32:25.263Z,85.19
2023-01-13T00:34:55.944Z,84.69
2023-01-13T00:37:23.415Z,84.74
2023-01-13T00:39:53.165Z,84.26
2023-01-13T00:42:39.489Z,84.10
2023-01-13T00:45:11.398Z,83.74
2023-01-13T00:47:38.939Z,83.32
2023-01-13T00:50:09.377Z,83.20
2023-01-13T00:52:36.556Z,82.81
2023-01-13T00:55:03.547Z,82.63
2023-01-13T00:57:30.193Z,81.89
2023-01-13T00:59:56.816Z,82.05
2023-01-13T01:02:23.506Z,81.58
2023-01-13T01:04:50.260Z,81.86
2023-01-13T01:07:17.184Z,81.60
2023-01-13T01:09:43.896Z,81.39
2023-01-13T01:12:10.634Z,81.40
2023-01-13T01:14:37.267Z,81.05
2023-01-13T01:17:04.004Z,81.40
2023-01-13T01:19:30.679Z,80.69
2023-01-13T01:21:57.299Z,80.85
2023-01-13T01:24:24.032Z,79.84
2023-01-13T01:26:50.722Z,79.31
2023-01-13T01:29:17.911Z,79.17
2023-01-13T01:31:44.695Z,78.86
2023-01-13T01:34:11.613Z,79.01
2023-01-13T01:36:39.449Z,79.00
2023-01-13T01:39:06.806Z,78.47
2023-01-13T01:41:35.796Z,78.12
2023-01-13T01:44:25.963Z,77.98
2023-01-13T01:46:53.770Z,77.45
2023-01-13T01:49:33.229Z,76.06
2023-01-13T01:52:07.028Z,75.22
2023-01-13T01:54:53.152Z,73.46
2023-01-13T01:57:27.648Z,72.87
2023-01-13T01:59:54.784Z,73.22
2023-01-13T02:02:22.446Z,73.55
2023-01-13T02:04:53.695Z,73.26
2023-01-13T02:07:27.299Z,72.93
2023-01-13T02:09:56.641Z,73.01
2023-01-13T02:12:32.169Z,73.22
2023-01-13T02:15:23.052Z,72.63
2023-01-13T02:18:36.249Z,72.78
2023-01-13T02:22:08.096Z,72.26
2023-01-13T02:24:55.938Z,71.70
2023-01-13T02:27:50.799Z,71.44
2023-01-13T02:30:48.550Z,71.34
2023-01-13T02:33:38.165Z,71.22
2023-01-13T02:36:27.097Z,71.16
2023-01-13T02:39:49.045Z,71.01
2023-01-13T02:42:46.955Z,71.28
2023-01-13T02:45:21.110Z,71.29
2023-01-13T02:47:50.701Z,71.50
2023-01-13T02:50:23.986Z,71.34
2023-01-13T02:52:57.014Z,71.92
2023-01-13T02:55:49.762Z,71.83
2023-01-13T02:58:26.155Z,71.46
2023-01-13T03:00:53.007Z,72.07
2023-01-13T03:03:19.766Z,72.21
2023-01-13T03:05:48.781Z,72.88
2023-01-13T03:08:39.527Z,72.57
2023-01-13T03:11:09.595Z,73.00
2023-01-13T03:14:17.293Z,73.32
2023-01-13T03:17:20.302Z,73.50
2023-01-13T03:20:17.891Z,73.34
2023-01-13T03:22:58.973Z,73.09
2023-01-13T03:25:33.250Z,73.43
2023-01-13T03:28:10.023Z,73.56
2023-01-13T03:30:45.119Z,73.78
2023-01-13T03:33:19.888Z,73.52
2023-01-13T03:35:53.024Z,73.77
2023-01-13T03:38:33.873Z,74.01
2023-01-13T03:41:07.610Z,74.17
2023-01-13T03:44:12.935Z,73.96
2023-01-13T03:46:52.737Z,74.23
2023-01-13T03:49:23.857Z,73.97
2023-01-13T03:51:58.377Z,74.30
2023-01-13T03:54:31.966Z,74.82
2023-01-13T03:57:09.940Z,74.37
2023-01-13T03:59:42.949Z,74.33
2023-01-13T04:02:47.195Z,74.59
2023-01-13T04:05:14.459Z,74.64
2023-01-13T04:08:09.829Z,74.44
2023-01-13T04:10:45.585Z,74.96
2023-01-13T04:13:19.162Z,74.91
2023-01-13T04:15:47.035Z,75.01
2023-01-13T04:18:21.401Z,75.10
2023-01-13T04:20:50.644Z,75.43
2023-01-13T04:23:19.035Z,74.98
2023-01-13T04:25:56.301Z,75.21
2023-01-13T04:28:23.914Z,75.16
2023-01-13T04:30:52.232Z,75.09
2023-01-13T04:33:21.038Z,76.04
2023-01-13T04:35:49.218Z,75.89
2023-01-13T04:38:20.326Z,75.66
2023-01-13T04:40:49.066Z,75.73
2023-01-13T04:43:16.862Z,75.57
2023-01-13T04:45:44.419Z,75.56
2023-01-13T04:48:12.096Z,75.72
2023-01-13T04:50:40.023Z,75.33
2023-01-13T04:53:07.565Z,75.41
2023-01-13T04:55:35.494Z,75.58
2023-01-13T04:58:11.956Z,76.15
2023-01-13T05:00:38.920Z,76.62
2023-01-13T05:03:05.619Z,77.28
2023-01-13T05:05:32.489Z,77.46
2023-01-13T05:07:59.648Z,77.52
2023-01-13T05:10:27.131Z,77.94
2023-01-13T05:13:12.313Z,77.94
2023-01-13T05:16:01.361Z,77.76
2023-01-13T05:18:31.160Z,78.05
2023-01-13T05:20:57.994Z,77.62
2023-01-13T05:23:44.341Z,77.84
2023-01-13T05:26:11.367Z,77.40
2023-01-13T05:28:38.624Z,77.56
2023-01-13T05:31:05.786Z,77.04
2023-01-13T05:33:33.670Z,77.49
2023-01-13T05:36:03.029Z,76.78
2023-01-13T05:38:29.758Z,76.00
2023-01-13T05:41:18.596Z,75.75
2023-01-13T05:43:45.298Z,76.31
2023-01-13T05:46:12.458Z,75.72
2023-01-13T05:48:42.833Z,75.71
2023-01-13T05:51:12.336Z,76.11
2023-01-13T05:53:40.889Z,75.50
2023-01-13T05:56:09.262Z,75.68
2023-01-13T05:58:35.960Z,75.91
2023-01-13T06:01:07.167Z,76.18
2023-01-13T06:03:34.408Z,76.22
2023-01-13T06:06:02.216Z,76.03
2023-01-13T06:08:30.286Z,75.67
2023-01-13T06:10:57.219Z,75.53
2023-01-13T06:13:25.319Z,75.16
2023-01-13T06:15:56.569Z,75.20
2023-01-13T06:18:24.261Z,74.65
2023-01-13T06:20:51.224Z,74.77
2023-01-13T06:23:18.082Z,74.05
2023-01-13T06:25:55.792Z,75.33
2023-01-13T06:28:22.569Z,74.84
2023-01-13T06:30:56.472Z,75.04
2023-01-13T06:33:31.917Z,74.91
2023-01-13T06:36:06.196Z,74.93
2023-01-13T06:38:37.670Z,75.05
2023-01-13T06:41:07.177Z,74.60
2023-01-13T06:43:34.075Z,75.30
2023-01-13T06:46:02.655Z,75.07
2023-01-13T06:48:35.041Z,75.24
2023-01-13T06:51:03.810Z,75.33
2023-01-13T06:53:34.834Z,75.09
2023-01-13T06:56:01.591Z,75.73
2023-01-13T06:58:28.244Z,75.64
2023-01-13T07:00:55.071Z,75.40
2023-01-13T07:03:21.804Z,75.47
2023-01-13T07:05:56.051Z,75.44
2023-01-13T07:08:24.196Z,75.28
2023-01-13T07:10:51.290Z,74.93
2023-01-13T07:13:36.608Z,74.23
2023-01-13T07:16:07.508Z,74.11
2023-01-13T07:18:35.559Z,74.17
2023-01-13T07:21:05.957Z,74.42
2023-01-13T07:23:37.323Z,74.00
2023-01-13T07:26:05.215Z,73.81
2023-01-13T07:28:32.783Z,73.21
2023-01-13T07:31:01.203Z,73.33
2023-01-13T07:33:28.107Z,73.33
2023-01-13T07:36:01.260Z,72.82
2023-01-13T07:38:28.819Z,73.25
2023-01-13T07:40:55.586Z,73.89
2023-01-13T07:43:31.979Z,73.34
2023-01-13T07:46:04.835Z,73.38
2023-01-13T07:48:35.203Z,73.12
2023-01-13T07:51:07.641Z,73.49
2023-01-13T07:53:35.174Z,73.30
2023-01-13T07:56:04.011Z,73.43
2023-01-13T07:58:30.873Z,73.36
2023-01-13T08:00:57.909Z,73.65
2023-01-13T08:03:25.158Z,74.03
2023-01-13T08:05:51.982Z,74.20
2023-01-13T08:08:19.455Z,74.22
2023-01-13T08:10:46.329Z,74.66
2023-01-13T08:13:20.793Z,74.62
2023-01-13T08:15:50.500Z,74.50
2023-01-13T08:18:21.919Z,74.50
2023-01-13T08:20:52.301Z,74.47
2023-01-13T08:23:21.656Z,74.20
2023-01-13T08:25:49.453Z,74.51
2023-01-13T08:28:17.763Z,74.47
2023-01-13T08:30:44.745Z,74.56
2023-01-13T08:33:12.746Z,74.29
2023-01-13T08:35:42.107Z,74.72
2023-01-13T08:38:09.181Z,74.35
2023-01-13T08:40:36.682Z,74.28
2023-01-13T08:43:03.888Z,74.22
2023-01-13T08:45:31.055Z,74.05
2023-01-13T08:47:58.048Z,74.01
2023-01-13T08:50:24.757Z,74.21
2023-01-13T08:52:51.500Z,74.37
2023-01-13T08:55:18.354Z,73.71
2023-01-13T08:57:45.261Z,74.14
2023-01-13T09:00:13.509Z,74.26
2023-01-13T09:02:40.764Z,73.96
2023-01-13T09:05:09.451Z,73.98
2023-01-13T09:07:39.067Z,73.60
2023-01-13T09:10:08.033Z,73.67
2023-01-13T09:12:53.531Z,73.32
2023-01-13T09:15:21.635Z,72.93
2023-01-13T09:17:48.499Z,73.00
2023-01-13T09:20:15.406Z,72.74
2023-01-13T09:22:42.210Z,72.53
2023-01-13T09:25:12.742Z,72.92
2023-01-13T09:27:39.960Z,72.64
2023-01-13T09:30:08.088Z,72.15
2023-01-13T09:32:35.531Z,72.25
2023-01-13T09:35:02.857Z,72.02
2023-01-13T09:37:39.159Z,72.58
2023-01-13T09:40:15.916Z,72.20
2023-01-13T09:43:41.905Z,72.20
2023-01-13T09:46:36.277Z,72.15
2023-01-13T09:49:03.939Z,71.73
2023-01-13T09:51:38.773Z,71.90
2023-01-13T09:54:22.920Z,71.72
2023-01-13T09:56:49.706Z,71.78
2023-01-13T09:59:16.559Z,71.67
2023-01-13T10:01:54.424Z,71.13
2023-01-13T10:04:27.913Z,71.48
2023-01-13T10:07:03.764Z,71.21
2023-01-13T10:09:47.143Z,71.25
2023-01-13T10:12:40.948Z,71.14
2023-01-13T10:15:16.570Z,70.65
2023-01-13T10:17:53.208Z,70.96
2023-01-13T10:20:31.529Z,71.08
2023-01-13T10:23:10.439Z,70.88
2023-01-13T10:26:11.287Z,71.06
2023-01-13T10:28:38.268Z,71.15
2023-01-13T10:31:12.313Z,70.88
2023-01-13T10:33:39.119Z,70.63
2023-01-13T10:36:13.799Z,69.62
2023-01-13T10:38:47.316Z,69.54
2023-01-13T10:41:17.832Z,69.56
2023-01-13T10:44:09.492Z,69.75
2023-01-13T10:46:53.120Z,69.61
2023-01-13T10:49:33.555Z,69.33
2023-01-13T10:52:02.726Z,69.37
2023-01-13T10:54:30.740Z,69.37
2023-01-13T10:57:24.164Z,68.88
2023-01-13T10:59:52.955Z,68.90
2023-01-13T11:02:30.524Z,68.73
2023-01-13T11:04:58.138Z,69.13
2023-01-13T11:07:52.418Z,69.36
2023-01-13T11:10:24.003Z,67.98
2023-01-13T11:13:11.901Z,68.73
2023-01-13T11:16:04.011Z,68.38
2023-01-13T11:19:13.229Z,68.46
2023-01-13T11:22:01.799Z,67.97
2023-01-13T11:24:37.087Z,68.70
2023-01-13T11:27:45.069Z,67.38
2023-01-13T11:31:01.642Z,68.53
2023-01-13T11:33:42.205Z,68.02
2023-01-13T11:36:20.391Z,67.37
2023-01-13T11:39:03.584Z,67.99
2023-01-13T11:42:21.560Z,68.21
2023-01-13T11:45:22.713Z,70.22
2023-01-13T11:47:54.923Z,69.35
2023-01-13T11:50:47.992Z,69.44
2023-01-13T11:53:45.288Z,68.07
2023-01-13T11:56:39.560Z,67.55
2023-01-13T11:59:32.405Z,68.85
2023-01-13T12:02:08.444Z,69.26
2023-01-13T12:05:09.179Z,68.11
2023-01-13T12:08:03.529Z,68.16
2023-01-13T12:10:46.202Z,68.13
2023-01-13T12:13:24.333Z,68.95
2023-01-13T12:16:23.611Z,69.65
2023-01-13T12:19:09.105Z,68.53
2023-01-13T12:21:55.156Z,69.25
2023-01-13T12:24:48.501Z,71.43
2023-01-13T12:27:48.484Z,73.74
2023-01-13T12:30:36.939Z,73.60
2023-01-13T12:33:38.876Z,74.68
2023-01-13T12:36:43.138Z,75.69
2023-01-13T12:39:18.675Z,75.94
2023-01-13T12:43:07.675Z,76.63
2023-01-13T12:45:34.928Z,78.78
2023-01-13T12:48:01.839Z,80.32
2023-01-13T12:50:29.119Z,81.24
2023-01-13T12:53:30.482Z,81.39
2023-01-13T12:56:36.486Z,81.37
2023-01-13T12:59:33.969Z,81.33
2023-01-13T13:02:13.170Z,81.63
2023-01-13T13:04:51.167Z,81.27
2023-01-13T13:07:35.929Z,81.75
2023-01-13T13:10:15.923Z,82.08
2023-01-13T13:13:01.154Z,82.20
2023-01-13T13:15:36.289Z,81.96
2023-01-13T13:18:20.850Z,81.56
2023-01-13T13:21:11.095Z,81.87
2023-01-13T13:24:02.901Z,81.78
2023-01-13T13:26:35.389Z,82.15
2023-01-13T13:29:42.111Z,82.14
2023-01-13T13:32:19.263Z,81.79
2023-01-13T13:35:04.891Z,81.71
2023-01-13T13:38:10.664Z,81.44
2023-01-13T13:41:04.451Z,81.14
2023-01-13T13:44:07.829Z,80.87
2023-01-13T13:46:49.744Z,80.67
2023-01-13T13:49:17.630Z,79.85
2023-01-13T13:52:10.915Z,79.58
2023-01-13T13:54:42.152Z,79.47
2023-01-13T13:57:19.616Z,79.21
2023-01-13T14:00:07.034Z,79.04
2023-01-13T14:02:41.960Z,78.76
2023-01-13T14:05:22.742Z,78.49
2023-01-13T14:08:00.794Z,78.64
2023-01-13T14:10:37.253Z,77.93
2023-01-13T14:13:24.974Z,78.15
2023-01-13T14:16:06.810Z,78.09
2023-01-13T14:18:47.679Z,78.05
2023-01-13T14:21:22.128Z,77.70
2023-01-13T14:24:17.485Z,78.23
2023-01-13T14:26:44.599Z,78.55
2023-01-13T14:29:24.117Z,78.69
2023-01-13T14:31:53.385Z,78.98
2023-01-13T14:34:32.031Z,79.56
2023-01-13T14:37:02.802Z,79.40
2023-01-13T14:39:41.642Z,80.00
2023-01-13T14:42:13.634Z,80.31
2023-01-13T14:44:48.507Z,80.89
2023-01-13T14:47:28.206Z,81.78
2023-01-13T14:50:11.745Z,81.67
2023-01-13T14:53:00.662Z,81.49
2023-01-13T14:55:40.199Z,81.37
2023-01-13T14:58:22.221Z,81.54
2023-01-13T15:00:51.368Z,81.34
2023-01-13T15:03:20.985Z,81.32
2023-01-13T15:05:52.898Z,81.07
2023-01-13T15:08:29.730Z,81.37
2023-01-13T15:11:04.425Z,81.44
2023-01-13T15:13:53.039Z,81.18
2023-01-13T15:16:26.551Z,81.61
2023-01-13T15:18:56.416Z,81.93
2023-01-13T15:21:23.976Z,82.27
2023-01-13T15:23:51.031Z,82.19
2023-01-13T15:26:29.617Z,82.20
2023-01-13T15:28:59.045Z,82.28
2023-01-13T15:31:29.183Z,82.09
2023-01-13T15:33:56.139Z,82.03
2023-01-13T15:36:34.409Z,81.88
2023-01-13T15:39:01.974Z,81.46
2023-01-13T15:41:53.802Z,81.26
2023-01-13T15:44:39.041Z,81.21
2023-01-13T15:47:08.472Z,80.80
2023-01-13T15:49:43.442Z,80.88
2023-01-13T15:52:21.687Z,80.53
2023-01-13T15:54:49.831Z,80.29
2023-01-13T15:57:31.762Z,81.00
2023-01-13T16:00:03.980Z,80.88
2023-01-13T16:02:33.381Z,81.13
2023-01-13T16:05:00.054Z,80.88
2023-01-13T16:07:26.817Z,80.66
2023-01-13T16:09:53.700Z,80.87
2023-01-13T16:12:20.534Z,80.54
2023-01-13T16:14:47.199Z,79.94
2023-01-13T16:17:25.083Z,80.36
2023-01-13T16:19:52.080Z,79.95
2023-01-13T16:22:18.885Z,79.88
2023-01-13T16:24:45.794Z,79.42
2023-01-13T16:27:15.900Z,79.28
2023-01-13T16:29:44.226Z,78.66
2023-01-13T16:32:11.428Z,78.14
2023-01-13T16:34:38.371Z,78.32
2023-01-13T16:37:22.733Z,77.74
2023-01-13T16:39:50.026Z,77.94
2023-01-13T16:42:16.862Z,77.72
2023-01-13T16:44:44.186Z,77.57
2023-01-13T16:47:16.459Z,77.55
2023-01-13T16:49:43.925Z,78.14
2023-01-13T16:52:11.050Z,77.75
2023-01-13T16:54:37.760Z,78.00
2023-01-13T16:57:04.790Z,77.81
2023-01-13T16:59:31.817Z,78.10
2023-01-13T17:01:58.501Z,77.95
2023-01-13T17:04:25.574Z,78.57
2023-01-13T17:07:03.970Z,78.23
2023-01-13T17:09:31.313Z,78.48
2023-01-13T17:11:58.911Z,78.78
2023-01-13T17:14:26.453Z,79.31
2023-01-13T17:16:55.450Z,79.20
2023-01-13T17:19:24.767Z,79.36
2023-01-13T17:21:51.515Z,79.98
2023-01-13T17:24:18.678Z,81.07
2023-01-13T17:26:49.246Z,81.66
2023-01-13T17:29:22.985Z,82.55
2023-01-13T17:31:51.086Z,82.68
2023-01-13T17:34:19.167Z,83.08
2023-01-13T17:36:45.853Z,82.70
2023-01-13T17:39:21.802Z,82.46
2023-01-13T17:41:48.563Z,82.32
2023-01-13T17:44:20.957Z,81.80
2023-01-13T17:46:47.752Z,81.42
2023-01-13T17:49:17.496Z,80.89
2023-01-13T17:51:48.082Z,80.28
2023-01-13T17:54:15.697Z,79.94
2023-01-13T17:56:42.852Z,79.73
2023-01-13T17:59:13.450Z,78.54
2023-01-13T18:01:40.786Z,78.03
2023-01-13T18:04:10.987Z,77.34
2023-01-13T18:06:37.681Z,76.18
2023-01-13T18:09:04.395Z,76.01
2023-01-13T18:11:31.105Z,75.54
2023-01-13T18:13:57.991Z,75.00
2023-01-13T18:16:27.420Z,74.31
2023-01-13T18:19:19.074Z,74.62
2023-01-13T18:22:05.896Z,74.16
2023-01-13T18:24:51.838Z,73.86
2023-01-13T18:27:24.182Z,74.52
2023-01-13T18:29:53.930Z,74.10
2023-01-13T18:32:23.154Z,73.79
2023-01-13T18:34:53.966Z,72.77
2023-01-13T18:37:26.182Z,73.31
2023-01-13T18:39:53.320Z,73.33
2023-01-13T18:42:38.499Z,73.21
2023-01-13T18:45:05.713Z,73.91
2023-01-13T18:47:33.540Z,73.54
2023-01-13T18:50:00.651Z,73.00
2023-01-13T18:52:28.527Z,73.05
2023-01-13T18:54:55.231Z,72.87
2023-01-13T18:57:22.285Z,73.21
2023-01-13T18:59:49.239Z,73.22
2023-01-13T19:02:20.058Z,72.92
2023-01-13T19:04:47.750Z,73.15
2023-01-13T19:07:23.536Z,73.07
2023-01-13T19:09:50.394Z,72.99
2023-01-13T19:12:23.513Z,72.80
2023-01-13T19:14:50.222Z,72.55
2023-01-13T19:17:17.040Z,72.40
2023-01-13T19:19:50.904Z,72.78
2023-01-13T19:22:37.841Z,72.98
2023-01-13T19:25:05.476Z,72.55
2023-01-13T19:27:32.367Z,72.37
2023-01-13T19:30:00.753Z,73.07
2023-01-13T19:32:30.663Z,72.96
2023-01-13T19:34:59.518Z,73.20
2023-01-13T19:37:30.211Z,72.81
2023-01-13T19:40:00.588Z,73.15
2023-01-13T19:42:46.392Z,73.35
2023-01-13T19:45:27.784Z,72.99
2023-01-13T19:47:56.239Z,73.36
2023-01-13T19:50:23.612Z,73.35
2023-01-13T19:52:50.336Z,73.26
2023-01-13T19:55:17.241Z,73.32
2023-01-13T19:57:43.946Z,73.84
2023-01-13T20:00:15.172Z,74.22
2023-01-13T20:02:47.819Z,73.78
2023-01-13T20:05:18.244Z,74.03
2023-01-13T20:07:44.976Z,74.30
2023-01-13T20:10:13.322Z,74.30
2023-01-13T20:12:41.578Z,74.21
2023-01-13T20:15:10.418Z,74.52
2023-01-13T20:17:37.724Z,74.61
2023-01-13T20:20:05.677Z,75.09
2023-01-13T20:22:32.462Z,75.09
2023-01-13T20:24:59.108Z,74.97
2023-01-13T20:27:26.037Z,75.25
2023-01-13T20:29:52.727Z,75.60
2023-01-13T20:32:19.806Z,75.84
2023-01-13T20:34:46.729Z,75.71
2023-01-13T20:37:13.786Z,75.85
2023-01-13T20:39:44.282Z,75.89
2023-01-13T20:42:39.573Z,75.85
2023-01-13T20:45:07.092Z,76.03
2023-01-13T20:47:33.912Z,76.78
2023-01-13T20:50:00.596Z,76.82
2023-01-13T20:52:28.255Z,76.56
2023-01-13T20:54:55.269Z,77.24
2023-01-13T20:57:22.368Z,77.04
2023-01-13T20:59:49.274Z,77.42
2023-01-13T21:02:17.389Z,78.09
2023-01-13T21:04:44.370Z,78.55
2023-01-13T21:07:11.499Z,79.06
2023-01-13T21:09:38.160Z,78.92
2023-01-13T21:12:24.560Z,79.45
2023-01-13T21:15:09.943Z,79.39
2023-01-13T21:17:55.599Z,79.56
2023-01-13T21:20:22.769Z,79.33
2023-01-13T21:22:50.205Z,78.85
2023-01-13T21:25:18.655Z,78.99
2023-01-13T21:27:46.615Z,79.22
2023-01-13T21:30:15.848Z,79.08
2023-01-13T21:32:44.572Z,79.10
2023-01-13T21:35:12.590Z,79.41
2023-01-13T21:37:41.269Z,78.74
2023-01-13T21:40:16.033Z,78.89
2023-01-13T21:43:02.244Z,78.26
2023-01-13T21:45:50.144Z,78.81
2023-01-13T21:48:17.282Z,78.85
2023-01-13T21:50:45.359Z,79.01
2023-01-13T21:53:12.231Z,78.44
2023-01-13T21:55:39.380Z,78.71
2023-01-13T21:58:14.658Z,78.71
2023-01-13T22:00:43.811Z,78.48
2023-01-13T22:03:14.757Z,78.52
2023-01-13T22:05:41.780Z,78.58
2023-01-13T22:08:11.675Z,78.73
2023-01-13T22:10:57.756Z,78.77
2023-01-13T22:13:44.676Z,78.42
2023-01-13T22:16:11.806Z,78.66
2023-01-13T22:18:38.578Z,78.66
2023-01-13T22:21:06.560Z,78.65
2023-01-13T22:23:33.941Z,78.59
2023-01-13T22:26:06.314Z,78.46
2023-01-13T22:28:51.061Z,78.20
2023-01-13T22:31:23.645Z,78.31
2023-01-13T22:33:55.720Z,78.08
2023-01-13T22:36:26.777Z,78.03
2023-01-13T22:38:56.362Z,78.28
2023-01-13T22:41:23.960Z,78.25
2023-01-13T22:43:50.749Z,78.03
2023-01-13T22:46:18.128Z,78.19
2023-01-13T22:48:46.257Z,78.28
2023-01-13T22:51:16.092Z,78.26
2023-01-13T22:53:43.391Z,78.46
2023-01-13T22:56:18.002Z,78.48
2023-01-13T22:58:44.947Z,78.30
2023-01-13T23:01:17.279Z,78.42
2023-01-13T23:03:47.652Z,78.21
2023-01-13T23:06:14.818Z,78.30
2023-01-13T23:08:41.830Z,78.40
2023-01-13T23:11:13.074Z,78.08
2023-01-13T23:13:42.817Z,77.90
2023-01-13T23:16:17.034Z,78.08
2023-01-13T23:18:48.099Z,77.83
2023-01-13T23:21:23.683Z,77.79
2023-01-13T23:23:51.085Z,77.94
2023-01-13T23:26:18.343Z,78.05
2023-01-13T23:28:45.291Z,77.92
2023-01-13T23:31:21.267Z,77.84
2023-01-13T23:33:48.895Z,77.92
2023-01-13T23:36:20.123Z,78.07
2023-01-13T23:38:47.293Z,78.10
2023-01-13T23:41:17.515Z,78.32
2023-01-13T23:43:44.340Z,78.23
2023-01-13T23:46:14.091Z,78.12
2023-01-13T23:48:40.900Z,78.08
2023-01-13T23:51:11.716Z,78.09
2023-01-13T23:53:45.042Z,78.20
2023-01-13T23:56:17.967Z,78.33
2023-01-13T23:58:45.397Z,78.18
